sensor_id;sensor_type;location;lat;lon;timestamp;temperature;humidity
20349;DHT22;10332;50.208;18.988;2024-01-15T00:02:15;1.50;22.10
20349;DHT22;10332;50.208;18.988;2024-01-15T00:04:42;1.40;99.90
20349;DHT22;10332;50.208;18.988;2024-01-15T00:07:10;1.40;1.00
20349;DHT22;10332;50.208;18.988;2024-01-15T00:09:37;1.40;1.00
20349;DHT22;10332;50.208;18.988;2024-01-15T00:12:05;1.40;99.90
20349;DHT22;10332;50.208;18.988;2024-01-15T00:14:32;1.50;1.00
20349;DHT22;10332;50.208;18.988;2024-01-15T00:17:00;1.40;99.90
20349;DHT22;10332;50.208;18.988;2024-01-15T00:19:27;1.40;1.00
20349;DHT22;10332;50.208;18.988;2024-01-15T00:21:55;1.50;1.00
20349;DHT22;10332;50.208;18.988;2024-01-15T00:24:22;1.40;1.00
20349;DHT22;10332;50.208;18.988;2024-01-15T00:26:50;1.40;1.00
20349;DHT22;10332;50.208;18.988;2024-01-15T00:29:17;1.40;1.00
20349;DHT22;10332;50.208;18.988;2024-01-15T00:31:45;1.40;1.00
20349;DHT22;10332;50.208;18.988;2024-01-15T00:34:12;1.40;1.00
20349;DHT22;10332;50.208;18.988;2024-01-15T00:36:39;1.30;1.00
20349;DHT22;10332;50.208;18.988;2024-01-15T00:39:07;1.30;99.90
20349;DHT22;10332;50.208;18.988;2024-01-15T00:41:34;1.40;99.90
20349;DHT22;10332;50.208;18.988;2024-01-15T00:44:01;1.40;1.00
20349;DHT22;10332;50.208;18.988;2024-01-15T00:46:30;1.40;99.90
20349;DHT22;10332;50.208;18.988;2024-01-15T00:48:57;1.40;99.90
20349;DHT22;10332;50.208;18.988;2024-01-15T00:51:24;1.40;1.00
20349;DHT22;10332;50.208;18.988;2024-01-15T00:53:52;1.30;1.00
20349;DHT22;10332;50.208;18.988;2024-01-15T00:56:19;1.40;55.10
20349;DHT22;10332;50.208;18.988;2024-01-15T00:58:46;1.40;99.90
20349;DHT22;10332;50.208;18.988;2024-01-15T01:01:14;1.40;99.90
20349;DHT22;10332;50.208;18.988;2024-01-15T01:03:41;1.30;96.90
20349;DHT22;10332;50.208;18.988;2024-01-15T01:06:08;1.30;1.00
20349;DHT22;10332;50.208;18.988;2024-01-15T01:08:37;1.30;1.00
20349;DHT22;10332;50.208;18.988;2024-01-15T01:11:04;1.40;1.00
20349;DHT22;10332;50.208;18.988;2024-01-15T01:13:33;1.30;1.00
20349;DHT22;10332;50.208;18.988;2024-01-15T01:16:00;1.30;99.90
20349;DHT22;10332;50.208;18.988;2024-01-15T01:18:28;1.30;1.00
20349;DHT22;10332;50.208;18.988;2024-01-15T01:20:55;1.30;99.90
20349;DHT22;10332;50.208;18.988;2024-01-15T01:23:22;1.30;99.90
20349;DHT22;10332;50.208;18.988;2024-01-15T01:25:50;1.30;99.90
20349;DHT22;10332;50.208;18.988;2024-01-15T01:28:17;1.30;1.00
20349;DHT22;10332;50.208;18.988;2024-01-15T01:30:45;1.30;1.00
20349;DHT22;10332;50.208;18.988;2024-01-15T01:33:12;1.30;1.00
20349;DHT22;10332;50.208;18.988;2024-01-15T01:35:40;1.30;1.00
20349;DHT22;10332;50.208;18.988;2024-01-15T01:38:07;1.30;28.50
20349;DHT22;10332;50.208;18.988;2024-01-15T01:40:35;1.30;99.90
20349;DHT22;10332;50.208;18.988;2024-01-15T01:43:04;1.30;99.90
20349;DHT22;10332;50.208;18.988;2024-01-15T01:45:32;1.30;1.00
20349;DHT22;10332;50.208;18.988;2024-01-15T01:48:00;1.30;1.00
20349;DHT22;10332;50.208;18.988;2024-01-15T01:50:30;1.30;1.00
20349;DHT22;10332;50.208;18.988;2024-01-15T01:52:59;1.30;99.90
20349;DHT22;10332;50.208;18.988;2024-01-15T01:55:29;1.20;99.90
20349;DHT22;10332;50.208;18.988;2024-01-15T01:57:57;1.20;1.00
20349;DHT22;10332;50.208;18.988;2024-01-15T02:00:25;1.20;1.00
20349;DHT22;10332;50.208;18.988;2024-01-15T02:02:52;1.20;1.00
20349;DHT22;10332;50.208;18.988;2024-01-15T02:05:22;1.20;1.00
20349;DHT22;10332;50.208;18.988;2024-01-15T02:07:49;1.20;1.00
20349;DHT22;10332;50.208;18.988;2024-01-15T02:10:17;1.20;1.00
20349;DHT22;10332;50.208;18.988;2024-01-15T02:12:44;1.20;1.00
20349;DHT22;10332;50.208;18.988;2024-01-15T02:15:12;1.20;1.00
20349;DHT22;10332;50.208;18.988;2024-01-15T02:18:09;1.20;1.00
20349;DHT22;10332;50.208;18.988;2024-01-15T02:20:36;1.30;99.90
20349;DHT22;10332;50.208;18.988;2024-01-15T02:23:10;1.20;99.90
20349;DHT22;10332;50.208;18.988;2024-01-15T02:25:41;1.20;1.00
20349;DHT22;10332;50.208;18.988;2024-01-15T02:28:11;1.20;1.00
20349;DHT22;10332;50.208;18.988;2024-01-15T02:30:39;1.20;99.90
20349;DHT22;10332;50.208;18.988;2024-01-15T02:33:08;1.20;99.90
20349;DHT22;10332;50.208;18.988;2024-01-15T02:35:36;1.20;99.90
20349;DHT22;10332;50.208;18.988;2024-01-15T02:38:05;1.10;1.00
20349;DHT22;10332;50.208;18.988;2024-01-15T02:40:33;1.20;99.90
20349;DHT22;10332;50.208;18.988;2024-01-15T02:43:00;1.10;1.00
20349;DHT22;10332;50.208;18.988;2024-01-15T02:45:28;1.10;1.00
20349;DHT22;10332;50.208;18.988;2024-01-15T02:47:55;1.10;1.00
20349;DHT22;10332;50.208;18.988;2024-01-15T02:50:22;1.10;99.90
20349;DHT22;10332;50.208;18.988;2024-01-15T02:52:50;1.10;99.90
20349;DHT22;10332;50.208;18.988;2024-01-15T02:55:17;1.10;99.90
20349;DHT22;10332;50.208;18.988;2024-01-15T02:57:45;1.10;99.90
20349;DHT22;10332;50.208;18.988;2024-01-15T03:00:13;1.10;99.90
20349;DHT22;10332;50.208;18.988;2024-01-15T03:02:41;1.10;1.00
20349;DHT22;10332;50.208;18.988;2024-01-15T03:05:15;1.10;99.90
20349;DHT22;10332;50.208;18.988;2024-01-15T03:07:42;1.10;54.70
20349;DHT22;10332;50.208;18.988;2024-01-15T03:10:10;1.10;1.00
20349;DHT22;10332;50.208;18.988;2024-01-15T03:12:37;1.10;99.90
20349;DHT22;10332;50.208;18.988;2024-01-15T03:15:05;1.10;1.00
20349;DHT22;10332;50.208;18.988;2024-01-15T03:17:32;1.10;99.90
20349;DHT22;10332;50.208;18.988;2024-01-15T03:20:00;1.10;99.90
20349;DHT22;10332;50.208;18.988;2024-01-15T03:22:27;1.10;99.90
20349;DHT22;10332;50.208;18.988;2024-01-15T03:24:55;1.20;16.60
20349;DHT22;10332;50.208;18.988;2024-01-15T03:27:22;1.20;99.90
20349;DHT22;10332;50.208;18.988;2024-01-15T03:29:49;1.10;99.90
20349;DHT22;10332;50.208;18.988;2024-01-15T03:32:17;1.10;1.00
20349;DHT22;10332;50.208;18.988;2024-01-15T03:34:45;1.10;1.00
20349;DHT22;10332;50.208;18.988;2024-01-15T03:37:14;1.20;1.00
20349;DHT22;10332;50.208;18.988;2024-01-15T03:39:41;1.10;1.00
20349;DHT22;10332;50.208;18.988;2024-01-15T03:42:09;1.10;1.00
20349;DHT22;10332;50.208;18.988;2024-01-15T03:44:36;1.20;1.00
20349;DHT22;10332;50.208;18.988;2024-01-15T03:47:04;1.10;1.00
20349;DHT22;10332;50.208;18.988;2024-01-15T03:49:31;1.10;1.00
20349;DHT22;10332;50.208;18.988;2024-01-15T03:51:58;1.10;1.00
20349;DHT22;10332;50.208;18.988;2024-01-15T03:54:26;1.10;99.90
20349;DHT22;10332;50.208;18.988;2024-01-15T03:56:53;1.10;1.00
20349;DHT22;10332;50.208;18.988;2024-01-15T03:59:21;1.10;1.00
20349;DHT22;10332;50.208;18.988;2024-01-15T04:01:49;1.10;1.00
20349;DHT22;10332;50.208;18.988;2024-01-15T04:04:20;1.10;1.00
20349;DHT22;10332;50.208;18.988;2024-01-15T04:06:47;1.10;99.90
20349;DHT22;10332;50.208;18.988;2024-01-15T04:09:15;1.10;1.00
20349;DHT22;10332;50.208;18.988;2024-01-15T04:11:43;1.10;1.00
20349;DHT22;10332;50.208;18.988;2024-01-15T04:14:10;1.10;1.00
20349;DHT22;10332;50.208;18.988;2024-01-15T04:16:38;1.10;1.00
20349;DHT22;10332;50.208;18.988;2024-01-15T04:19:05;1.10;1.00
20349;DHT22;10332;50.208;18.988;2024-01-15T04:21:33;1.10;1.00
20349;DHT22;10332;50.208;18.988;2024-01-15T04:24:00;1.10;1.00
20349;DHT22;10332;50.208;18.988;2024-01-15T04:26:27;1.10;1.00
20349;DHT22;10332;50.208;18.988;2024-01-15T04:28:55;1.10;1.00
20349;DHT22;10332;50.208;18.988;2024-01-15T04:31:25;1.10;1.00
20349;DHT22;10332;50.208;18.988;2024-01-15T04:33:55;1.10;1.00
20349;DHT22;10332;50.208;18.988;2024-01-15T04:36:22;1.00;1.00
20349;DHT22;10332;50.208;18.988;2024-01-15T04:38:50;1.10;1.00
20349;DHT22;10332;50.208;18.988;2024-01-15T04:41:17;1.10;1.00
20349;DHT22;10332;50.208;18.988;2024-01-15T04:43:46;1.00;1.00
20349;DHT22;10332;50.208;18.988;2024-01-15T04:46:13;1.00;1.00
20349;DHT22;10332;50.208;18.988;2024-01-15T04:48:40;1.00;1.00
20349;DHT22;10332;50.208;18.988;2024-01-15T04:51:09;1.00;1.00
20349;DHT22;10332;50.208;18.988;2024-01-15T04:53:36;1.00;1.00
20349;DHT22;10332;50.208;18.988;2024-01-15T04:56:04;1.00;1.00
20349;DHT22;10332;50.208;18.988;2024-01-15T04:58:31;1.00;1.00
20349;DHT22;10332;50.208;18.988;2024-01-15T05:00:58;1.00;1.00
20349;DHT22;10332;50.208;18.988;2024-01-15T05:03:26;1.00;1.00
20349;DHT22;10332;50.208;18.988;2024-01-15T05:05:54;1.00;1.00
20349;DHT22;10332;50.208;18.988;2024-01-15T05:08:22;0.90;5.30
20349;DHT22;10332;50.208;18.988;2024-01-15T05:10:49;0.90;1.00
20349;DHT22;10332;50.208;18.988;2024-01-15T05:13:16;0.90;1.40
20349;DHT22;10332;50.208;18.988;2024-01-15T05:15:43;0.90;99.90
20349;DHT22;10332;50.208;18.988;2024-01-15T05:18:11;0.90;8.30
20349;DHT22;10332;50.208;18.988;2024-01-15T05:20:38;0.90;1.00
20349;DHT22;10332;50.208;18.988;2024-01-15T05:23:06;0.90;1.00
20349;DHT22;10332;50.208;18.988;2024-01-15T05:25:33;1.00;1.00
20349;DHT22;10332;50.208;18.988;2024-01-15T05:28:01;1.00;1.00
20349;DHT22;10332;50.208;18.988;2024-01-15T05:30:29;1.00;1.00
20349;DHT22;10332;50.208;18.988;2024-01-15T05:32:56;1.00;1.00
20349;DHT22;10332;50.208;18.988;2024-01-15T05:35:24;1.00;1.00
20349;DHT22;10332;50.208;18.988;2024-01-15T05:37:52;1.00;1.00
20349;DHT22;10332;50.208;18.988;2024-01-15T05:40:19;0.90;1.00
20349;DHT22;10332;50.208;18.988;2024-01-15T05:42:46;0.90;1.00
20349;DHT22;10332;50.208;18.988;2024-01-15T05:45:14;0.90;1.00
20349;DHT22;10332;50.208;18.988;2024-01-15T05:47:42;0.90;1.00
20349;DHT22;10332;50.208;18.988;2024-01-15T05:50:11;0.90;1.00
20349;DHT22;10332;50.208;18.988;2024-01-15T05:52:38;0.80;1.00
20349;DHT22;10332;50.208;18.988;2024-01-15T05:55:06;0.80;1.00
20349;DHT22;10332;50.208;18.988;2024-01-15T05:57:34;0.90;1.00
20349;DHT22;10332;50.208;18.988;2024-01-15T06:00:01;0.90;1.00
20349;DHT22;10332;50.208;18.988;2024-01-15T06:02:29;0.90;1.00
20349;DHT22;10332;50.208;18.988;2024-01-15T06:04:56;0.90;1.00
20349;DHT22;10332;50.208;18.988;2024-01-15T06:07:23;0.90;1.00
20349;DHT22;10332;50.208;18.988;2024-01-15T06:09:51;0.90;1.00
20349;DHT22;10332;50.208;18.988;2024-01-15T06:12:18;0.90;1.00
20349;DHT22;10332;50.208;18.988;2024-01-15T06:14:45;0.90;1.00
20349;DHT22;10332;50.208;18.988;2024-01-15T06:17:13;0.90;1.00
20349;DHT22;10332;50.208;18.988;2024-01-15T06:19:40;0.90;1.00
20349;DHT22;10332;50.208;18.988;2024-01-15T06:22:08;0.90;1.00
20349;DHT22;10332;50.208;18.988;2024-01-15T06:24:35;0.90;1.00
20349;DHT22;10332;50.208;18.988;2024-01-15T06:27:03;0.90;1.00
20349;DHT22;10332;50.208;18.988;2024-01-15T06:29:30;0.90;1.00
20349;DHT22;10332;50.208;18.988;2024-01-15T06:31:57;0.80;1.00
20349;DHT22;10332;50.208;18.988;2024-01-15T06:34:25;0.80;1.00
20349;DHT22;10332;50.208;18.988;2024-01-15T06:36:52;0.80;1.00
20349;DHT22;10332;50.208;18.988;2024-01-15T06:39:20;0.80;1.00
20349;DHT22;10332;50.208;18.988;2024-01-15T06:41:47;0.80;1.00
20349;DHT22;10332;50.208;18.988;2024-01-15T06:44:14;0.80;1.00
20349;DHT22;10332;50.208;18.988;2024-01-15T06:46:43;0.90;1.00
20349;DHT22;10332;50.208;18.988;2024-01-15T06:49:11;0.80;1.00
20349;DHT22;10332;50.208;18.988;2024-01-15T06:51:39;0.80;1.00
20349;DHT22;10332;50.208;18.988;2024-01-15T06:54:07;0.80;1.00
20349;DHT22;10332;50.208;18.988;2024-01-15T06:56:34;0.80;1.00
20349;DHT22;10332;50.208;18.988;2024-01-15T06:59:02;0.80;1.00
20349;DHT22;10332;50.208;18.988;2024-01-15T07:01:30;0.80;1.00
20349;DHT22;10332;50.208;18.988;2024-01-15T07:03:57;0.90;1.00
20349;DHT22;10332;50.208;18.988;2024-01-15T07:06:25;0.90;1.00
20349;DHT22;10332;50.208;18.988;2024-01-15T07:08:52;0.90;1.00
20349;DHT22;10332;50.208;18.988;2024-01-15T07:11:19;0.90;1.00
20349;DHT22;10332;50.208;18.988;2024-01-15T07:13:47;0.90;1.00
20349;DHT22;10332;50.208;18.988;2024-01-15T07:16:14;0.90;1.00
20349;DHT22;10332;50.208;18.988;2024-01-15T07:19:00;0.90;1.00
20349;DHT22;10332;50.208;18.988;2024-01-15T07:21:28;0.90;1.00
20349;DHT22;10332;50.208;18.988;2024-01-15T07:23:55;1.00;99.90
20349;DHT22;10332;50.208;18.988;2024-01-15T07:26:22;1.00;99.90
20349;DHT22;10332;50.208;18.988;2024-01-15T07:28:50;1.10;99.90
20349;DHT22;10332;50.208;18.988;2024-01-15T07:31:17;1.10;99.90
20349;DHT22;10332;50.208;18.988;2024-01-15T07:33:45;1.10;1.00
20349;DHT22;10332;50.208;18.988;2024-01-15T07:36:14;1.10;1.00
20349;DHT22;10332;50.208;18.988;2024-01-15T07:38:41;1.10;1.00
20349;DHT22;10332;50.208;18.988;2024-01-15T07:41:09;1.20;1.00
20349;DHT22;10332;50.208;18.988;2024-01-15T07:43:36;1.20;1.00
20349;DHT22;10332;50.208;18.988;2024-01-15T07:46:03;1.40;1.00
20349;DHT22;10332;50.208;18.988;2024-01-15T07:48:31;1.50;1.00
20349;DHT22;10332;50.208;18.988;2024-01-15T07:50:58;1.60;99.90
20349;DHT22;10332;50.208;18.988;2024-01-15T07:53:26;1.70;99.90
20349;DHT22;10332;50.208;18.988;2024-01-15T07:55:53;1.70;99.90
20349;DHT22;10332;50.208;18.988;2024-01-15T07:58:20;1.70;99.90
20349;DHT22;10332;50.208;18.988;2024-01-15T08:00:48;1.70;99.90
20349;DHT22;10332;50.208;18.988;2024-01-15T08:03:15;1.60;99.90
20349;DHT22;10332;50.208;18.988;2024-01-15T08:05:43;1.60;99.90
20349;DHT22;10332;50.208;18.988;2024-01-15T08:08:10;1.60;99.90
20349;DHT22;10332;50.208;18.988;2024-01-15T08:10:38;1.60;99.90
20349;DHT22;10332;50.208;18.988;2024-01-15T08:13:05;1.70;99.90
20349;DHT22;10332;50.208;18.988;2024-01-15T08:15:35;1.70;99.90
20349;DHT22;10332;50.208;18.988;2024-01-15T08:18:02;1.70;99.90
20349;DHT22;10332;50.208;18.988;2024-01-15T08:20:30;1.70;99.90
20349;DHT22;10332;50.208;18.988;2024-01-15T08:22:58;1.80;99.90
20349;DHT22;10332;50.208;18.988;2024-01-15T08:25:25;1.90;99.90
20349;DHT22;10332;50.208;18.988;2024-01-15T08:27:53;2.20;99.90
20349;DHT22;10332;50.208;18.988;2024-01-15T08:30:20;2.30;1.00
20349;DHT22;10332;50.208;18.988;2024-01-15T08:32:48;2.20;7.10
20349;DHT22;10332;50.208;18.988;2024-01-15T08:35:15;2.10;99.90
20349;DHT22;10332;50.208;18.988;2024-01-15T08:37:43;2.00;99.90
20349;DHT22;10332;50.208;18.988;2024-01-15T08:40:11;2.00;1.00
20349;DHT22;10332;50.208;18.988;2024-01-15T08:42:38;2.00;1.00
20349;DHT22;10332;50.208;18.988;2024-01-15T08:45:06;2.40;1.00
20349;DHT22;10332;50.208;18.988;2024-01-15T08:47:33;3.00;99.90
20349;DHT22;10332;50.208;18.988;2024-01-15T08:50:02;3.60;1.00
20349;DHT22;10332;50.208;18.988;2024-01-15T08:52:30;4.20;1.00
20349;DHT22;10332;50.208;18.988;2024-01-15T08:54:57;4.10;99.90
20349;DHT22;10332;50.208;18.988;2024-01-15T08:57:25;3.80;91.40
20349;DHT22;10332;50.208;18.988;2024-01-15T08:59:52;3.40;24.20
20349;DHT22;10332;50.208;18.988;2024-01-15T09:02:22;3.20;62.80
20349;DHT22;10332;50.208;18.988;2024-01-15T09:04:49;3.10;56.30
20349;DHT22;10332;50.208;18.988;2024-01-15T09:07:16;3.20;1.00
20349;DHT22;10332;50.208;18.988;2024-01-15T09:09:44;3.20;1.00
20349;DHT22;10332;50.208;18.988;2024-01-15T09:12:11;3.10;1.00
20349;DHT22;10332;50.208;18.988;2024-01-15T09:14:43;3.20;1.00
20349;DHT22;10332;50.208;18.988;2024-01-15T09:17:10;3.60;1.00
20349;DHT22;10332;50.208;18.988;2024-01-15T09:19:38;3.90;1.00
20349;DHT22;10332;50.208;18.988;2024-01-15T09:22:09;4.00;1.00
20349;DHT22;10332;50.208;18.988;2024-01-15T09:24:36;4.00;1.00
20349;DHT22;10332;50.208;18.988;2024-01-15T09:27:03;4.10;1.00
20349;DHT22;10332;50.208;18.988;2024-01-15T09:29:31;4.30;1.00
20349;DHT22;10332;50.208;18.988;2024-01-15T09:31:58;4.90;99.90
20349;DHT22;10332;50.208;18.988;2024-01-15T09:34:26;5.40;99.90
20349;DHT22;10332;50.208;18.988;2024-01-15T09:36:54;6.70;99.90
20349;DHT22;10332;50.208;18.988;2024-01-15T09:39:21;7.40;99.90
20349;DHT22;10332;50.208;18.988;2024-01-15T09:41:50;7.20;99.90
20349;DHT22;10332;50.208;18.988;2024-01-15T09:44:19;6.70;99.90
20349;DHT22;10332;50.208;18.988;2024-01-15T09:46:47;6.20;99.90
20349;DHT22;10332;50.208;18.988;2024-01-15T09:49:17;5.80;99.90
20349;DHT22;10332;50.208;18.988;2024-01-15T09:51:45;5.50;99.90
20349;DHT22;10332;50.208;18.988;2024-01-15T09:54:25;5.30;99.90
20349;DHT22;10332;50.208;18.988;2024-01-15T09:56:54;5.20;99.90
20349;DHT22;10332;50.208;18.988;2024-01-15T09:59:22;5.20;99.90
20349;DHT22;10332;50.208;18.988;2024-01-15T10:01:52;5.20;99.90
20349;DHT22;10332;50.208;18.988;2024-01-15T10:04:20;5.50;99.90
20349;DHT22;10332;50.208;18.988;2024-01-15T10:06:48;6.20;99.90
20349;DHT22;10332;50.208;18.988;2024-01-15T10:09:18;7.10;99.90
20349;DHT22;10332;50.208;18.988;2024-01-15T10:11:46;7.40;99.90
20349;DHT22;10332;50.208;18.988;2024-01-15T10:14:16;6.90;99.90
20349;DHT22;10332;50.208;18.988;2024-01-15T10:16:43;6.80;99.90
20349;DHT22;10332;50.208;18.988;2024-01-15T10:19:10;7.40;99.90
20349;DHT22;10332;50.208;18.988;2024-01-15T10:21:38;8.10;99.90
20349;DHT22;10332;50.208;18.988;2024-01-15T10:24:09;8.30;99.90
20349;DHT22;10332;50.208;18.988;2024-01-15T10:26:37;8.60;99.90
20349;DHT22;10332;50.208;18.988;2024-01-15T10:29:04;8.40;96.40
20349;DHT22;10332;50.208;18.988;2024-01-15T10:31:31;8.00;95.20
20349;DHT22;10332;50.208;18.988;2024-01-15T10:34:10;7.60;97.60
20349;DHT22;10332;50.208;18.988;2024-01-15T10:36:41;7.30;99.90
20349;DHT22;10332;50.208;18.988;2024-01-15T10:39:08;7.10;99.90
20349;DHT22;10332;50.208;18.988;2024-01-15T10:41:36;7.10;99.90
20349;DHT22;10332;50.208;18.988;2024-01-15T10:44:03;6.90;99.90
20349;DHT22;10332;50.208;18.988;2024-01-15T10:46:31;6.70;99.90
20349;DHT22;10332;50.208;18.988;2024-01-15T10:49:00;6.30;99.90
20349;DHT22;10332;50.208;18.988;2024-01-15T10:51:28;6.20;99.90
20349;DHT22;10332;50.208;18.988;2024-01-15T10:53:56;6.30;99.90
20349;DHT22;10332;50.208;18.988;2024-01-15T10:56:26;6.30;99.90
20349;DHT22;10332;50.208;18.988;2024-01-15T10:58:54;6.30;99.90
20349;DHT22;10332;50.208;18.988;2024-01-15T11:01:26;6.30;99.90
20349;DHT22;10332;50.208;18.988;2024-01-15T11:03:57;6.30;99.90
20349;DHT22;10332;50.208;18.988;2024-01-15T11:06:27;5.90;99.90
20349;DHT22;10332;50.208;18.988;2024-01-15T11:08:56;5.70;99.90
20349;DHT22;10332;50.208;18.988;2024-01-15T11:11:24;5.50;99.90
20349;DHT22;10332;50.208;18.988;2024-01-15T11:13:52;5.30;99.90
20349;DHT22;10332;50.208;18.988;2024-01-15T11:16:20;5.00;99.90
20349;DHT22;10332;50.208;18.988;2024-01-15T11:21:27;4.70;99.90
20349;DHT22;10332;50.208;18.988;2024-01-15T11:23:59;4.60;99.90
20349;DHT22;10332;50.208;18.988;2024-01-15T11:26:32;4.40;99.90
20349;DHT22;10332;50.208;18.988;2024-01-15T11:29:01;4.30;99.90
20349;DHT22;10332;50.208;18.988;2024-01-15T11:34:18;4.00;99.90
20349;DHT22;10332;50.208;18.988;2024-01-15T11:42:03;3.50;99.90
20349;DHT22;10332;50.208;18.988;2024-01-15T11:44:31;3.40;99.90
20349;DHT22;10332;50.208;18.988;2024-01-15T11:47:03;3.40;99.90
20349;DHT22;10332;50.208;18.988;2024-01-15T11:52:00;3.20;99.90
20349;DHT22;10332;50.208;18.988;2024-01-15T11:54:31;3.20;99.90
20349;DHT22;10332;50.208;18.988;2024-01-15T11:57:02;3.10;99.90
20349;DHT22;10332;50.208;18.988;2024-01-15T11:59:31;3.00;99.90
20349;DHT22;10332;50.208;18.988;2024-01-15T12:01:58;2.90;99.90
20349;DHT22;10332;50.208;18.988;2024-01-15T12:04:26;3.00;99.90
20349;DHT22;10332;50.208;18.988;2024-01-15T12:06:54;3.00;99.90
20349;DHT22;10332;50.208;18.988;2024-01-15T12:09:21;2.90;99.90
20349;DHT22;10332;50.208;18.988;2024-01-15T12:11:57;2.80;99.90
20349;DHT22;10332;50.208;18.988;2024-01-15T12:14:28;2.80;1.00
20349;DHT22;10332;50.208;18.988;2024-01-15T12:16:56;2.70;1.00
20349;DHT22;10332;50.208;18.988;2024-01-15T12:19:23;2.70;1.00
20349;DHT22;10332;50.208;18.988;2024-01-15T12:21:51;2.60;1.00
20349;DHT22;10332;50.208;18.988;2024-01-15T12:24:19;2.70;1.00
20349;DHT22;10332;50.208;18.988;2024-01-15T12:26:47;2.70;1.00
20349;DHT22;10332;50.208;18.988;2024-01-15T12:29:17;2.70;1.00
20349;DHT22;10332;50.208;18.988;2024-01-15T12:31:48;2.70;1.00
20349;DHT22;10332;50.208;18.988;2024-01-15T12:34:17;2.70;1.00
20349;DHT22;10332;50.208;18.988;2024-01-15T12:36:46;2.70;1.00
20349;DHT22;10332;50.208;18.988;2024-01-15T12:39:15;2.60;1.00
20349;DHT22;10332;50.208;18.988;2024-01-15T12:41:42;2.60;1.00
20349;DHT22;10332;50.208;18.988;2024-01-15T12:44:11;2.60;1.00
20349;DHT22;10332;50.208;18.988;2024-01-15T12:46:39;2.60;1.00
20349;DHT22;10332;50.208;18.988;2024-01-15T12:49:08;2.50;1.00
20349;DHT22;10332;50.208;18.988;2024-01-15T12:51:35;2.60;1.00
20349;DHT22;10332;50.208;18.988;2024-01-15T12:54:03;2.50;1.00
20349;DHT22;10332;50.208;18.988;2024-01-15T12:56:30;2.50;1.00
20349;DHT22;10332;50.208;18.988;2024-01-15T12:58:58;2.40;1.00
20349;DHT22;10332;50.208;18.988;2024-01-15T13:01:25;2.40;1.00
20349;DHT22;10332;50.208;18.988;2024-01-15T13:03:53;2.40;1.00
20349;DHT22;10332;50.208;18.988;2024-01-15T13:06:21;2.50;1.00
20349;DHT22;10332;50.208;18.988;2024-01-15T13:08:48;2.40;1.00
20349;DHT22;10332;50.208;18.988;2024-01-15T13:11:17;2.50;1.00
20349;DHT22;10332;50.208;18.988;2024-01-15T13:13:45;2.50;1.00
20349;DHT22;10332;50.208;18.988;2024-01-15T13:16:12;2.40;1.00
20349;DHT22;10332;50.208;18.988;2024-01-15T13:18:40;2.40;1.00
20349;DHT22;10332;50.208;18.988;2024-01-15T13:21:08;2.40;1.00
20349;DHT22;10332;50.208;18.988;2024-01-15T13:23:36;2.30;1.00
20349;DHT22;10332;50.208;18.988;2024-01-15T13:26:04;2.30;1.00
20349;DHT22;10332;50.208;18.988;2024-01-15T13:28:33;2.30;1.00
20349;DHT22;10332;50.208;18.988;2024-01-15T13:31:01;2.30;1.00
20349;DHT22;10332;50.208;18.988;2024-01-15T13:33:30;2.20;1.00
20349;DHT22;10332;50.208;18.988;2024-01-15T13:35:57;2.30;1.00
20349;DHT22;10332;50.208;18.988;2024-01-15T13:38:24;2.20;1.00
20349;DHT22;10332;50.208;18.988;2024-01-15T13:40:52;2.20;1.00
20349;DHT22;10332;50.208;18.988;2024-01-15T13:43:19;2.20;1.00
20349;DHT22;10332;50.208;18.988;2024-01-15T13:45:47;2.20;1.00
20349;DHT22;10332;50.208;18.988;2024-01-15T13:48:14;2.10;1.00
20349;DHT22;10332;50.208;18.988;2024-01-15T13:50:42;2.10;1.00
20349;DHT22;10332;50.208;18.988;2024-01-15T13:53:09;2.20;1.00
20349;DHT22;10332;50.208;18.988;2024-01-15T13:55:36;2.10;1.00
20349;DHT22;10332;50.208;18.988;2024-01-15T13:58:04;2.10;1.00
20349;DHT22;10332;50.208;18.988;2024-01-15T14:00:32;2.10;1.00
20349;DHT22;10332;50.208;18.988;2024-01-15T14:03:01;2.20;1.00
20349;DHT22;10332;50.208;18.988;2024-01-15T14:05:29;2.10;1.00
20349;DHT22;10332;50.208;18.988;2024-01-15T14:07:56;2.10;1.00
20349;DHT22;10332;50.208;18.988;2024-01-15T14:10:23;2.00;1.00
20349;DHT22;10332;50.208;18.988;2024-01-15T14:12:51;2.00;1.00
20349;DHT22;10332;50.208;18.988;2024-01-15T14:15:18;2.00;1.00
20349;DHT22;10332;50.208;18.988;2024-01-15T14:17:48;1.90;1.00
20349;DHT22;10332;50.208;18.988;2024-01-15T14:20:15;1.90;1.00
20349;DHT22;10332;50.208;18.988;2024-01-15T14:22:49;1.90;1.00
20349;DHT22;10332;50.208;18.988;2024-01-15T14:25:16;1.90;1.00
20349;DHT22;10332;50.208;18.988;2024-01-15T14:27:43;1.90;1.00
20349;DHT22;10332;50.208;18.988;2024-01-15T14:30:11;1.90;1.00
20349;DHT22;10332;50.208;18.988;2024-01-15T14:32:40;1.90;1.00
20349;DHT22;10332;50.208;18.988;2024-01-15T14:35:08;2.00;1.00
20349;DHT22;10332;50.208;18.988;2024-01-15T14:37:38;1.90;1.00
20349;DHT22;10332;50.208;18.988;2024-01-15T14:40:06;1.90;1.00
20349;DHT22;10332;50.208;18.988;2024-01-15T14:42:44;1.90;1.00
20349;DHT22;10332;50.208;18.988;2024-01-15T14:45:11;1.90;1.00
20349;DHT22;10332;50.208;18.988;2024-01-15T14:47:40;1.90;1.00
20349;DHT22;10332;50.208;18.988;2024-01-15T14:50:08;1.90;1.00
20349;DHT22;10332;50.208;18.988;2024-01-15T14:52:37;1.80;1.00
20349;DHT22;10332;50.208;18.988;2024-01-15T14:55:05;1.80;1.00
20349;DHT22;10332;50.208;18.988;2024-01-15T14:57:33;1.80;1.00
20349;DHT22;10332;50.208;18.988;2024-01-15T15:00:00;1.70;1.00
20349;DHT22;10332;50.208;18.988;2024-01-15T15:02:28;1.70;1.00
20349;DHT22;10332;50.208;18.988;2024-01-15T15:04:58;1.70;1.00
20349;DHT22;10332;50.208;18.988;2024-01-15T15:07:27;1.70;1.00
20349;DHT22;10332;50.208;18.988;2024-01-15T15:09:54;1.70;1.00
20349;DHT22;10332;50.208;18.988;2024-01-15T15:12:22;1.70;1.00
20349;DHT22;10332;50.208;18.988;2024-01-15T15:14:53;1.70;1.00
20349;DHT22;10332;50.208;18.988;2024-01-15T15:17:33;1.70;1.00
20349;DHT22;10332;50.208;18.988;2024-01-15T15:20:02;1.70;1.00
20349;DHT22;10332;50.208;18.988;2024-01-15T15:22:33;1.60;1.00
20349;DHT22;10332;50.208;18.988;2024-01-15T15:25:00;1.60;1.00
20349;DHT22;10332;50.208;18.988;2024-01-15T15:27:28;1.60;1.00
20349;DHT22;10332;50.208;18.988;2024-01-15T15:29:55;1.60;1.00
20349;DHT22;10332;50.208;18.988;2024-01-15T15:32:23;1.60;1.00
20349;DHT22;10332;50.208;18.988;2024-01-15T15:34:50;1.60;1.00
20349;DHT22;10332;50.208;18.988;2024-01-15T15:37:18;1.60;1.00
20349;DHT22;10332;50.208;18.988;2024-01-15T15:39:45;1.60;1.00
20349;DHT22;10332;50.208;18.988;2024-01-15T15:42:13;1.60;1.00
20349;DHT22;10332;50.208;18.988;2024-01-15T15:44:41;1.60;1.00
20349;DHT22;10332;50.208;18.988;2024-01-15T15:47:17;1.50;1.00
20349;DHT22;10332;50.208;18.988;2024-01-15T15:49:44;1.50;1.00
20349;DHT22;10332;50.208;18.988;2024-01-15T15:52:12;1.50;1.00
20349;DHT22;10332;50.208;18.988;2024-01-15T15:54:39;1.50;1.00
20349;DHT22;10332;50.208;18.988;2024-01-15T15:57:08;1.50;1.00
20349;DHT22;10332;50.208;18.988;2024-01-15T15:59:35;1.50;1.00